Time;durP1;ratioP1;P1;durP2;ratioP2;P2;SDS_P1;SDS_P2;PMS_P1;PMS_P2;Temp;Humidity;BMP_temperature;BMP_pressure;BME280_temperature;BME280_humidity;BME280_pressure;Samples;Min_cycle;Max_cycle;Signal;HPM_P1;HPM_P2
2021/10/21 00:02:22;;;;;;;7.78;2.05;;;;;;;13.23;100.00;98841.84;5035972;28;20037;-79
2021/10/21 00:04:49;;;;;;;8.43;2.75;;;;;;;13.35;100.00;98831.88;5035995;28;20025;-79
2021/10/21 00:07:14;;;;;;;13.23;3.50;;;;;;;13.30;100.00;98826.19;5036085;28;20035;-77
2021/10/21 00:09:39;;;;;;;10.48;3.05;;;;;;;13.35;100.00;98815.13;5036851;28;20029;-79
2021/10/21 00:12:05;;;;;;;11.75;2.80;;;;;;;13.45;100.00;98810.56;5038735;28;20040;-80
2021/10/21 00:14:31;;;;;;;6.55;2.85;;;;;;;13.45;100.00;98802.59;5039819;28;20116;-79
2021/10/21 00:16:56;;;;;;;8.85;2.25;;;;;;;13.30;100.00;98784.53;5023247;28;20028;-78
2021/10/21 00:19:22;;;;;;;7.55;1.85;;;;;;;13.00;100.00;98781.22;5038080;28;20087;-80
2021/10/21 00:21:50;;;;;;;8.70;2.00;;;;;;;13.04;100.00;98771.97;5037532;28;20086;-80
2021/10/21 00:24:16;;;;;;;11.90;2.05;;;;;;;13.02;100.00;98762.50;5040138;28;20087;-79
2021/10/21 00:26:42;;;;;;;6.90;1.63;;;;;;;12.86;100.00;98721.56;5074412;22;20106;-78
2021/10/21 00:29:07;;;;;;;10.10;2.42;;;;;;;12.49;100.00;98701.22;5056495;28;20049;-79
2021/10/21 00:31:33;;;;;;;8.70;1.90;;;;;;;12.68;100.00;98713.53;5055883;28;20471;-80
2021/10/21 00:33:58;;;;;;;7.03;2.10;;;;;;;12.76;100.00;98713.63;5055304;28;20082;-78
2021/10/21 00:36:24;;;;;;;9.80;1.85;;;;;;;12.89;100.00;98704.50;5055042;28;20193;-79
2021/10/21 00:38:49;;;;;;;9.43;2.13;;;;;;;12.49;100.00;98649.03;5053895;28;20025;-79
2021/10/21 00:41:15;;;;;;;13.27;2.22;;;;;;;12.52;100.00;98629.34;5054808;28;20025;-79
2021/10/21 00:43:41;;;;;;;10.18;2.40;;;;;;;12.76;100.00;98609.38;5055428;28;20103;-81
2021/10/21 00:46:08;;;;;;;8.75;2.53;;;;;;;12.91;100.00;98588.47;5055655;28;20045;-80
2021/10/21 00:48:34;;;;;;;6.05;2.80;;;;;;;13.08;100.00;98573.53;5061511;28;20029;-78
2021/10/21 00:51:00;;;;;;;7.88;2.85;;;;;;;12.55;100.00;98545.03;5054760;28;20526;-79
2021/10/21 00:53:26;;;;;;;10.55;2.35;;;;;;;13.00;100.00;98541.63;5054765;28;20029;-79
2021/10/21 00:55:52;;;;;;;7.45;2.63;;;;;;;12.85;100.00;98549.31;5036872;28;20025;-79
2021/10/21 00:58:17;;;;;;;9.90;2.80;;;;;;;13.12;100.00;98535.06;5054923;28;20365;-79
2021/10/21 01:00:43;;;;;;;8.93;2.75;;;;;;;12.91;100.00;98524.81;5054908;28;20498;-79
2021/10/21 01:03:08;;;;;;;10.48;2.67;;;;;;;13.19;100.00;98506.09;5037821;28;20037;-78
2021/10/21 01:05:34;;;;;;;8.13;2.80;;;;;;;12.90;100.00;98492.16;5056500;28;20029;-79
2021/10/21 01:07:59;;;;;;;8.68;2.78;;;;;;;12.48;100.00;98488.31;5038376;28;20036;-81
2021/10/21 01:10:25;;;;;;;11.13;3.10;;;;;;;12.55;100.00;98513.22;5056127;28;20025;-79
2021/10/21 01:12:50;;;;;;;8.30;3.08;;;;;;;12.85;100.00;98517.47;5053976;28;20039;-79
2021/10/21 01:15:26;;;;;;;7.78;3.13;;;;;;;12.77;100.00;98495.19;5054733;28;20021;-79
2021/10/21 01:17:53;;;;;;;8.13;2.60;;;;;;;12.62;100.00;98504.66;5054611;28;20040;-78
2021/10/21 01:20:19;;;;;;;8.00;2.67;;;;;;;12.75;100.00;98491.03;5054609;28;20025;-80
2021/10/21 01:22:46;;;;;;;5.75;1.90;;;;;;;12.84;100.00;98484.81;5054108;28;20017;-79
2021/10/21 01:25:12;;;;;;;4.53;1.25;;;;;;;12.56;100.00;98479.59;5053987;28;20451;-78
2021/10/21 01:27:38;;;;;;;4.30;1.30;;;;;;;12.62;100.00;98494.06;5053811;28;20098;-78
2021/10/21 01:30:03;;;;;;;3.67;1.50;;;;;;;12.54;100.00;98495.66;5054089;28;20037;-78
2021/10/21 01:32:34;;;;;;;3.58;1.08;;;;;;;12.54;100.00;98502.78;5053993;28;20021;-78
2021/10/21 01:35:00;;;;;;;8.23;1.35;;;;;;;12.57;100.00;98484.75;5054088;28;20044;-78
2021/10/21 01:37:26;;;;;;;10.65;1.77;;;;;;;12.87;100.00;98481.84;5035719;28;20472;-79
2021/10/21 01:39:51;;;;;;;4.57;1.23;;;;;;;12.86;100.00;98468.75;5035556;28;20028;-80
2021/10/21 01:42:18;;;;;;;5.70;1.20;;;;;;;12.95;100.00;98452.72;5053877;28;20388;-78
2021/10/21 01:44:43;;;;;;;8.98;1.58;;;;;;;12.77;100.00;98434.19;5053586;28;20025;-79
2021/10/21 01:47:09;;;;;;;8.82;1.42;;;;;;;12.85;100.00;98414.03;5035627;28;20407;-78
2021/10/21 01:49:34;;;;;;;10.60;1.83;;;;;;;12.71;100.00;98413.59;5053696;28;20430;-78
2021/10/21 01:52:00;;;;;;;7.45;1.63;;;;;;;12.65;100.00;98396.50;5054884;28;20025;-79
2021/10/21 01:54:25;;;;;;;7.15;1.25;;;;;;;12.71;100.00;98395.88;5056195;28;20025;-79
2021/10/21 01:56:53;;;;;;;9.07;1.20;;;;;;;12.54;100.00;98408.19;5053188;28;20074;-79
2021/10/21 01:59:18;;;;;;;7.10;1.00;;;;;;;12.51;100.00;98421.75;5052433;28;20388;-79
2021/10/21 02:01:44;;;;;;;5.40;0.90;;;;;;;12.43;100.00;98434.94;5053649;28;20079;-81
2021/10/21 02:04:09;;;;;;;3.63;1.05;;;;;;;12.29;100.00;98453.03;5053224;28;20365;-79
2021/10/21 02:06:34;;;;;;;4.40;0.98;;;;;;;12.24;100.00;98451.84;5053679;28;20031;-78
2021/10/21 02:09:00;;;;;;;1.92;0.70;;;;;;;12.20;100.00;98483.94;5052965;28;20021;-79
2021/10/21 02:11:25;;;;;;;5.35;1.40;;;;;;;12.33;100.00;98499.44;5052976;28;20017;-79
2021/10/21 02:13:51;;;;;;;7.10;0.80;;;;;;;12.01;100.00;98489.31;5053206;28;20035;-78
2021/10/21 02:16:16;;;;;;;5.15;0.95;;;;;;;11.83;100.00;98516.56;5053112;28;20020;-78
2021/10/21 02:18:42;;;;;;;5.22;1.10;;;;;;;11.69;100.00;98550.50;5052910;28;20299;-79
2021/10/21 02:21:07;;;;;;;5.10;1.15;;;;;;;11.66;100.00;98550.78;5053034;28;20438;-79
2021/10/21 02:23:33;;;;;;;3.22;1.08;;;;;;;11.66;100.00;98523.47;5053103;28;20028;-79
2021/10/21 02:25:58;;;;;;;1.20;0.60;;;;;;;11.55;98.40;98537.72;5052935;28;20021;-77
2021/10/21 02:28:24;;;;;;;7.70;0.65;;;;;;;11.63;97.54;98542.28;5052663;28;20045;-77
2021/10/21 02:30:49;;;;;;;4.20;0.70;;;;;;;11.41;100.00;98568.13;5052964;28;20087;-79
2021/10/21 02:33:16;;;;;;;4.35;0.88;;;;;;;11.26;100.00;98580.97;5052877;28;20489;-78
2021/10/21 02:35:42;;;;;;;6.10;1.05;;;;;;;11.24;100.00;98556.47;5052886;28;20021;-78
2021/10/21 02:38:08;;;;;;;5.85;0.88;;;;;;;11.26;100.00;98565.13;5052976;28;20524;-79
2021/10/21 02:40:33;;;;;;;5.93;1.35;;;;;;;11.14;100.00;98593.53;5052857;28;20025;-77
2021/10/21 02:42:59;;;;;;;5.53;1.10;;;;;;;10.99;100.00;98580.72;5034802;28;20021;-77
2021/10/21 02:45:24;;;;;;;4.68;1.08;;;;;;;10.81;100.00;98605.22;5051465;28;20489;-77
2021/10/21 02:47:50;;;;;;;4.05;0.70;;;;;;;10.85;100.00;98566.13;5052645;28;20029;-79
2021/10/21 02:50:15;;;;;;;5.97;1.40;;;;;;;11.14;100.00;98572.38;5052442;28;20021;-78
2021/10/21 02:52:41;;;;;;;6.72;1.13;;;;;;;11.26;100.00;98555.38;5052165;28;20036;-79
2021/10/21 02:55:07;;;;;;;12.55;1.77;;;;;;;11.43;100.00;98547.66;5052590;28;20016;-78
2021/10/21 02:57:33;;;;;;;9.68;1.48;;;;;;;11.31;100.00;98529.31;5052493;28;20471;-77
2021/10/21 02:59:58;;;;;;;9.40;1.58;;;;;;;11.29;100.00;98538.38;5052095;28;20029;-79
2021/10/21 03:02:24;;;;;;;10.35;2.10;;;;;;;11.30;100.00;98530.28;5052843;28;20032;-78
2021/10/21 03:04:49;;;;;;;5.57;1.00;;;;;;;11.01;100.00;98586.72;5052896;28;20071;-84
2021/10/21 03:07:16;;;;;;;7.38;1.10;;;;;;;11.01;100.00;98614.97;5052024;28;20051;-77
2021/10/21 03:09:41;;;;;;;3.42;0.60;;;;;;;11.01;100.00;98594.66;5053842;28;20460;-78
2021/10/21 03:12:07;;;;;;;3.25;0.73;;;;;;;11.20;100.00;98614.13;5054682;28;20488;-78
2021/10/21 03:14:32;;;;;;;8.45;1.75;;;;;;;11.23;100.00;98605.94;5053450;28;20025;-80
2021/10/21 03:16:57;;;;;;;8.40;1.50;;;;;;;11.32;100.00;98606.88;5032185;28;20025;-79
2021/10/21 03:19:23;;;;;;;4.45;0.80;;;;;;;11.29;100.00;98592.13;5014939;28;20029;-78
2021/10/21 03:21:48;;;;;;;2.80;0.95;;;;;;;11.82;100.00;98591.72;5032248;28;20033;-80
2021/10/21 03:24:14;;;;;;;4.72;0.93;;;;;;;11.70;100.00;98604.31;5032368;28;20033;-79
2021/10/21 03:26:39;;;;;;;2.17;1.02;;;;;;;11.64;100.00;98618.94;5032089;28;20046;-78
2021/10/21 03:29:05;;;;;;;4.45;0.90;;;;;;;11.51;100.00;98624.53;5032431;28;20033;-78
2021/10/21 03:31:31;;;;;;;3.55;1.00;;;;;;;11.54;100.00;98628.72;5032188;28;20022;-79
2021/10/21 03:33:57;;;;;;;6.20;1.75;;;;;;;11.87;100.00;98615.09;5014863;28;20025;-80
2021/10/21 03:36:23;;;;;;;3.20;0.88;;;;;;;11.68;100.00;98595.66;5032114;28;20076;-78
2021/10/21 03:38:48;;;;;;;3.83;0.88;;;;;;;11.67;100.00;98620.47;5032166;28;20105;-82
2021/10/21 03:41:13;;;;;;;7.60;1.88;;;;;;;11.31;100.00;98616.63;5032472;28;20029;-82
2021/10/21 03:43:39;;;;;;;7.65;2.00;;;;;;;11.31;100.00;98618.44;5032381;28;20032;-82
2021/10/21 03:46:04;;;;;;;8.40;2.00;;;;;;;11.68;100.00;98612.38;5032003;28;20026;-82
2021/10/21 03:48:30;;;;;;;8.75;1.67;;;;;;;11.74;100.00;98624.19;5015961;28;20420;-79
2021/10/21 03:50:55;;;;;;;5.15;1.40;;;;;;;11.89;100.00;98621.09;5015306;28;20415;-86
2021/10/21 03:53:21;;;;;;;7.38;1.70;;;;;;;11.97;100.00;98637.09;4998524;28;20412;-82
2021/10/21 03:55:46;;;;;;;5.13;1.20;;;;;;;11.51;100.00;98660.75;5032834;28;20354;-84
2021/10/21 03:58:11;;;;;;;2.72;0.85;;;;;;;11.30;100.00;98673.16;5033313;28;20566;-81
2021/10/21 04:00:37;;;;;;;1.60;0.70;;;;;;;10.87;100.00;98691.09;5032733;28;20091;-82
2021/10/21 04:03:02;;;;;;;5.78;0.93;;;;;;;11.05;100.00;98683.31;5032327;28;20017;-84
2021/10/21 04:05:28;;;;;;;3.85;0.80;;;;;;;11.12;100.00;98685.41;5043642;28;20073;-79
2021/10/21 04:07:53;;;;;;;3.08;0.90;;;;;;;10.77;100.00;98703.44;5052483;28;20021;-82
2021/10/21 04:10:19;;;;;;;2.67;0.80;;;;;;;10.57;100.00;98709.50;5052094;28;20043;-82
2021/10/21 04:12:45;;;;;;;1.55;0.60;;;;;;;10.49;100.00;98722.56;5054322;28;20104;-85
2021/10/21 04:15:11;;;;;;;2.30;0.70;;;;;;;10.50;100.00;98736.59;5055571;28;20021;-81
2021/10/21 04:17:37;;;;;;;2.53;0.90;;;;;;;10.55;100.00;98747.63;5037359;28;20044;-80
2021/10/21 04:20:03;;;;;;;3.00;0.90;;;;;;;10.44;100.00;98767.84;5055421;28;20375;-82
2021/10/21 04:22:29;;;;;;;2.03;0.77;;;;;;;10.47;100.00;98769.41;5056801;28;20146;-80
2021/10/21 04:24:54;;;;;;;1.83;0.70;;;;;;;10.46;100.00;98796.81;5055772;28;20021;-79
2021/10/21 04:27:20;;;;;;;2.35;0.70;;;;;;;10.58;100.00;98802.84;5098151;22;20060;-80
2021/10/21 04:29:46;;;;;;;3.67;0.75;;;;;;;10.43;100.00;98815.56;5056163;28;20405;-81
2021/10/21 04:32:11;;;;;;;2.67;1.00;;;;;;;10.37;100.00;98837.22;5040434;28;20107;-80
2021/10/21 04:34:37;;;;;;;2.70;0.60;;;;;;;10.45;100.00;98845.31;5075528;28;20078;-79
2021/10/21 04:37:02;;;;;;;1.73;0.68;;;;;;;10.38;100.00;98862.66;5075804;28;20021;-87
2021/10/21 04:39:28;;;;;;;2.03;0.60;;;;;;;10.12;100.00;98873.59;5075352;28;20033;-82
2021/10/21 04:41:53;;;;;;;4.82;1.08;;;;;;;10.25;100.00;98881.31;5075228;28;20024;-77
2021/10/21 04:44:19;;;;;;;4.85;0.73;;;;;;;10.17;100.00;98890.72;5075324;28;20028;-88
2021/10/21 04:46:44;;;;;;;7.07;0.85;;;;;;;10.31;100.00;98899.31;5074614;28;20031;-77
2021/10/21 04:49:10;;;;;;;5.50;1.20;;;;;;;10.48;100.00;98918.25;5075042;28;20378;-82
2021/10/21 04:51:35;;;;;;;5.68;0.95;;;;;;;10.64;100.00;98941.56;5040484;28;20459;-80
2021/10/21 04:54:01;;;;;;;4.90;0.82;;;;;;;10.39;100.00;98938.31;5057163;28;20031;-81
2021/10/21 04:56:26;;;;;;;4.65;0.82;;;;;;;10.33;100.00;98964.28;5074797;28;20506;-85
2021/10/21 04:58:52;;;;;;;3.70;0.70;;;;;;;10.20;100.00;98968.88;5056972;28;20060;-79
2021/10/21 05:01:17;;;;;;;7.82;1.15;;;;;;;10.14;100.00;98983.44;5075394;28;20028;-89
2021/10/21 05:03:43;;;;;;;10.10;1.02;;;;;;;10.14;100.00;98993.16;5075684;28;20020;-88
2021/10/21 05:06:08;;;;;;;3.97;1.63;;;;;;;10.27;100.00;98998.28;5075778;28;20036;-79
2021/10/21 05:08:34;;;;;;;6.63;1.05;;;;;;;10.44;100.00;99008.31;5074807;28;20039;-78
2021/10/21 05:10:59;;;;;;;6.88;1.20;;;;;;;10.64;100.00;99018.22;5056544;28;20024;-78
2021/10/21 05:13:25;;;;;;;8.27;1.20;;;;;;;10.63;100.00;99043.84;5074691;28;20520;-85
2021/10/21 05:15:50;;;;;;;9.57;1.63;;;;;;;10.69;100.00;99053.91;5074796;28;20542;-85
2021/10/21 05:18:16;;;;;;;11.15;2.22;;;;;;;10.87;100.00;99069.22;5074227;28;20029;-77
2021/10/21 05:20:41;;;;;;;7.78;1.30;;;;;;;10.74;100.00;99079.13;5056159;28;20471;-77
2021/10/21 05:23:07;;;;;;;8.52;1.92;;;;;;;10.75;100.00;99075.53;5073785;28;20024;-79
2021/10/21 05:25:32;;;;;;;9.13;1.40;;;;;;;10.62;100.00;99096.84;5056281;28;20040;-81
2021/10/21 05:27:59;;;;;;;5.88;1.20;;;;;;;10.77;100.00;99098.22;5074518;28;20048;-79
2021/10/21 05:30:24;;;;;;;7.07;1.20;;;;;;;10.77;100.00;99100.03;5074061;28;20033;-77
2021/10/21 05:32:50;;;;;;;7.55;1.50;;;;;;;10.83;100.00;99116.22;5040319;28;20382;-79
2021/10/21 05:35:15;;;;;;;15.57;1.77;;;;;;;10.74;100.00;99124.06;5073962;28;20036;-78
2021/10/21 05:37:41;;;;;;;6.53;1.52;;;;;;;10.80;100.00;99129.69;5073779;28;20025;-79
2021/10/21 05:40:07;;;;;;;7.97;2.05;;;;;;;10.82;100.00;99137.50;5055843;28;20485;-76
2021/10/21 05:42:32;;;;;;;9.50;1.27;;;;;;;10.94;99.55;99148.88;5082421;28;20039;-76
2021/10/21 05:44:58;;;;;;;9.57;1.20;;;;;;;10.86;98.51;99153.97;5067872;28;20108;-83
2021/10/21 05:47:24;;;;;;;10.15;1.40;;;;;;;10.91;97.06;99167.63;5074563;28;20150;-84
2021/10/21 05:49:50;;;;;;;10.75;1.45;;;;;;;10.84;97.46;99180.53;5076512;28;20387;-81
2021/10/21 05:52:16;;;;;;;6.75;1.10;;;;;;;10.83;97.32;99182.34;5075590;28;20016;-76
2021/10/21 05:54:42;;;;;;;5.13;1.10;;;;;;;10.89;97.34;99188.94;5075335;28;20044;-78
2021/10/21 05:57:07;;;;;;;9.40;2.03;;;;;;;10.92;98.93;99201.91;5056915;28;20108;-80
2021/10/21 05:59:33;;;;;;;7.25;1.77;;;;;;;10.95;99.65;99209.59;5076364;28;20120;-81
2021/10/21 06:01:58;;;;;;;8.85;2.03;;;;;;;11.13;99.65;99229.38;5078378;28;20074;-80
2021/10/21 06:04:24;;;;;;;8.60;1.70;;;;;;;11.26;98.99;99240.66;5078101;28;20032;-85
2021/10/21 06:06:49;;;;;;;7.97;1.67;;;;;;;11.45;97.42;99247.09;5078105;28;20029;-80
2021/10/21 06:09:20;;;;;;;7.20;1.85;;;;;;;11.52;94.61;99250.91;5073065;28;20028;-79
2021/10/21 06:11:45;;;;;;;11.32;2.10;;;;;;;11.59;93.72;99267.94;5056160;28;20467;-78
2021/10/21 06:14:11;;;;;;;9.90;1.55;;;;;;;11.77;91.56;99291.22;5073046;28;20057;-79
2021/10/21 06:16:36;;;;;;;7.28;1.40;;;;;;;12.00;90.36;99292.94;5073266;28;20025;-77
2021/10/21 06:19:02;;;;;;;7.95;1.55;;;;;;;11.88;88.72;99285.03;5073374;28;20101;-79
2021/10/21 06:21:28;;;;;;;6.63;1.30;;;;;;;11.74;87.08;99307.38;5055670;28;20430;-80
2021/10/21 06:23:54;;;;;;;8.80;1.63;;;;;;;11.89;86.60;99321.13;5073093;28;20029;-79
2021/10/21 06:26:19;;;;;;;12.18;1.40;;;;;;;11.99;86.13;99328.31;5055127;28;20491;-78
2021/10/21 06:28:47;;;;;;;10.15;1.98;;;;;;;11.95;85.50;99327.75;5073932;28;20482;-79
2021/10/21 06:31:13;;;;;;;18.25;2.25;;;;;;;11.95;86.37;99356.91;5073373;28;20489;-78
2021/10/21 06:33:39;;;;;;;12.45;2.95;;;;;;;11.99;85.86;99382.16;5075769;28;20028;-77
2021/10/21 06:36:04;;;;;;;11.07;1.52;;;;;;;11.93;85.31;99364.13;5074223;28;20033;-78
2021/10/21 06:38:30;;;;;;;10.32;2.17;;;;;;;12.02;84.06;99373.13;5075703;28;20086;-77
2021/10/21 06:40:55;;;;;;;7.68;1.63;;;;;;;11.95;80.18;99396.63;5073850;28;20028;-79
2021/10/21 06:43:21;;;;;;;4.80;1.30;;;;;;;12.15;75.28;99400.31;5073470;28;20382;-77
2021/10/21 06:45:46;;;;;;;8.63;1.60;;;;;;;12.11;72.80;99392.75;5073214;28;20037;-77
2021/10/21 06:48:12;;;;;;;6.45;1.60;;;;;;;12.12;72.80;99412.97;5072920;28;20024;-78
2021/10/21 06:50:37;;;;;;;8.65;1.55;;;;;;;12.19;72.52;99414.16;5073612;28;20021;-77
2021/10/21 06:53:03;;;;;;;6.63;1.88;;;;;;;12.22;71.43;99419.22;5073050;28;20024;-76
2021/10/21 06:55:28;;;;;;;11.93;1.75;;;;;;;12.29;71.16;99430.13;5073437;28;20036;-77
2021/10/21 06:57:58;;;;;;;5.50;1.40;;;;;;;12.11;71.23;99446.59;5073375;28;20039;-76
2021/10/21 07:00:25;;;;;;;5.38;1.30;;;;;;;12.06;70.90;99468.13;5073369;28;20025;-80
2021/10/21 07:02:50;;;;;;;5.07;1.42;;;;;;;11.93;72.84;99456.84;5055380;28;20043;-78
2021/10/21 07:05:16;;;;;;;5.90;1.42;;;;;;;12.16;73.80;99486.78;5073308;28;20020;-78
2021/10/21 07:07:42;;;;;;;10.10;1.67;;;;;;;12.27;74.31;99477.13;5073302;28;20023;-76
2021/10/21 07:10:08;;;;;;;7.65;2.03;;;;;;;12.24;74.30;99502.06;5073357;28;20029;-77
2021/10/21 07:12:37;;;;;;;5.95;1.40;;;;;;;12.02;74.75;99495.81;5055408;28;20024;-81
2021/10/21 07:15:09;;;;;;;7.47;1.40;;;;;;;12.03;71.14;99494.88;5073043;28;20021;-79
2021/10/21 07:17:35;;;;;;;6.85;1.58;;;;;;;12.16;67.25;99526.53;5055535;28;20029;-77
2021/10/21 07:20:00;;;;;;;6.88;1.95;;;;;;;12.16;66.72;99521.22;5073092;28;20024;-76
2021/10/21 07:22:25;;;;;;;9.23;1.65;;;;;;;12.35;67.34;99540.13;5072837;28;20055;-77
2021/10/21 07:24:51;;;;;;;8.07;1.50;;;;;;;12.24;65.32;99544.47;5072419;28;20032;-78
2021/10/21 07:27:17;;;;;;;6.32;1.20;;;;;;;12.45;64.13;99551.66;5071868;28;20048;-78
2021/10/21 07:29:42;;;;;;;7.38;1.65;;;;;;;12.41;65.70;99576.75;5072024;28;20391;-78
2021/10/21 07:32:08;;;;;;;7.45;1.52;;;;;;;12.57;66.21;99577.16;5072040;28;20027;-77
2021/10/21 07:34:35;;;;;;;7.18;1.50;;;;;;;12.74;66.90;99582.88;5072270;28;20029;-77
2021/10/21 07:37:01;;;;;;;9.18;2.15;;;;;;;12.67;69.23;99598.47;5072183;28;20028;-79
2021/10/21 07:39:26;;;;;;;9.00;2.17;;;;;;;12.59;74.14;99608.84;5072522;28;20391;-80
2021/10/21 07:41:52;;;;;;;11.52;2.08;;;;;;;12.58;74.26;99612.47;5072212;28;20063;-80
2021/10/21 07:44:18;;;;;;;7.97;1.58;;;;;;;12.38;73.15;99620.22;5071926;28;20619;-76
2021/10/21 07:46:46;;;;;;;7.10;2.08;;;;;;;12.44;73.84;99656.84;5072717;28;20107;-76
2021/10/21 07:49:12;;;;;;;15.75;2.08;;;;;;;12.63;72.74;99665.16;5075699;28;20043;-79
2021/10/21 07:51:38;;;;;;;6.95;2.00;;;;;;;12.44;70.18;99678.06;5057661;28;20455;-78
2021/10/21 07:54:04;;;;;;;5.95;1.75;;;;;;;12.26;69.71;99679.53;5075603;28;20113;-81
2021/10/21 07:56:29;;;;;;;7.28;1.92;;;;;;;12.56;70.16;99681.56;5075677;28;20459;-79
2021/10/21 07:58:55;;;;;;;8.20;2.10;;;;;;;12.35;71.92;99715.91;5075367;28;20082;-79
2021/10/21 08:01:20;;;;;;;9.75;1.70;;;;;;;12.51;75.03;99726.16;5057543;28;20025;-79
2021/10/21 08:03:46;;;;;;;11.00;1.83;;;;;;;12.48;76.66;99736.16;5075411;28;20103;-77
2021/10/21 08:06:12;;;;;;;15.90;2.30;;;;;;;12.26;77.98;99749.28;5075899;28;20021;-79
2021/10/21 08:08:37;;;;;;;11.75;2.13;;;;;;;12.49;76.72;99735.19;5075240;28;20111;-77
2021/10/21 08:11:03;;;;;;;9.40;2.38;;;;;;;12.49;76.06;99757.25;5075379;28;20028;-76
2021/10/21 08:13:29;;;;;;;11.30;2.20;;;;;;;12.55;74.80;99761.22;5075630;28;20028;-79
2021/10/21 08:15:56;;;;;;;13.48;2.88;;;;;;;12.60;75.82;99743.13;5075535;28;20070;-77
2021/10/21 08:18:22;;;;;;;10.60;2.30;;;;;;;12.71;74.63;99782.06;5076561;28;20107;-78
2021/10/21 08:20:47;;;;;;;12.30;2.33;;;;;;;12.53;75.20;99753.41;5076089;28;20039;-78
2021/10/21 08:23:13;;;;;;;11.05;2.08;;;;;;;12.77;74.38;99767.50;5075458;28;20025;-77
2021/10/21 08:25:38;;;;;;;7.18;1.90;;;;;;;13.04;73.19;99777.69;5075660;28;20351;-77
2021/10/21 08:28:07;;;;;;;10.32;2.25;;;;;;;13.14;72.72;99763.66;5089646;22;20071;-83
2021/10/21 08:30:49;;;;;;;10.02;2.80;;;;;;;12.95;74.15;99776.63;5083935;28;20036;-85
2021/10/21 08:33:15;;;;;;;11.55;2.20;;;;;;;12.79;73.12;99763.75;5099813;28;20048;-81
2021/10/21 08:35:42;;;;;;;20.58;4.07;;;;;;;13.16;71.57;99820.16;5084846;28;20040;-82
2021/10/21 08:38:08;;;;;;;11.30;2.22;;;;;;;13.25;68.59;99787.53;5084132;28;20040;-83
2021/10/21 08:40:37;;;;;;;7.88;1.90;;;;;;;13.45;68.22;99798.34;5086514;28;20378;-81
2021/10/21 08:43:06;;;;;;;7.45;1.83;;;;;;;13.64;65.84;99799.50;5090274;28;20090;-80
2021/10/21 08:45:32;;;;;;;6.93;1.70;;;;;;;13.42;64.61;99825.16;5097604;28;20036;-80
2021/10/21 08:48:02;;;;;;;5.78;1.60;;;;;;;13.27;65.10;99796.19;5076918;28;20032;-83
2021/10/21 08:50:27;;;;;;;7.20;1.60;;;;;;;13.52;64.21;99817.31;5052311;28;20731;-82
2021/10/21 08:52:53;;;;;;;7.90;1.75;;;;;;;13.83;63.54;99826.25;5086135;28;20060;-80
2021/10/21 08:55:19;;;;;;;5.97;1.45;;;;;;;13.76;62.14;99846.31;5067922;28;20021;-82
2021/10/21 08:57:44;;;;;;;6.15;1.52;;;;;;;13.38;63.79;99821.06;5062720;28;20024;-87
2021/10/21 09:00:12;;;;;;;5.47;1.40;;;;;;;13.36;65.90;99852.19;5096745;28;20031;-85
2021/10/21 09:02:49;;;;;;;5.47;1.73;;;;;;;13.26;66.85;99863.56;5063422;28;20029;-83
2021/10/21 09:05:35;;;;;;;5.53;1.30;;;;;;;13.08;67.88;99844.66;5081324;28;20347;-82
2021/10/21 09:08:13;;;;;;;7.38;1.63;;;;;;;13.32;67.92;99878.13;5063347;28;20418;-83
2021/10/21 09:10:52;;;;;;;8.98;1.60;;;;;;;13.00;74.35;99882.41;5047254;28;20457;-82
2021/10/21 09:13:30;;;;;;;6.90;1.48;;;;;;;12.41;80.46;99877.16;5063198;28;20535;-84
2021/10/21 09:15:59;;;;;;;14.98;1.75;;;;;;;12.13;83.12;99921.66;5082215;28;20107;-81
2021/10/21 09:18:26;;;;;;;7.03;1.42;;;;;;;11.78;85.70;99903.88;5080044;28;20107;-84
2021/10/21 09:20:52;;;;;;;7.90;2.58;;;;;;;11.43;87.92;99913.41;5096629;28;20024;-83
2021/10/21 09:23:19;;;;;;;11.70;2.28;;;;;;;11.51;89.17;99932.25;5063858;28;20032;-84
2021/10/21 09:25:45;;;;;;;7.68;1.30;;;;;;;11.05;94.15;99941.63;5081977;28;20028;-85
2021/10/21 09:28:20;;;;;;;10.40;1.45;;;;;;;10.82;97.45;99947.56;5063324;28;20052;-82
2021/10/21 09:31:00;;;;;;;12.05;1.42;;;;;;;10.69;99.01;99944.06;5063557;28;20039;-83
2021/10/21 09:33:26;;;;;;;6.93;1.33;;;;;;;10.55;100.00;99974.06;5079209;28;20021;-84
2021/10/21 09:36:00;;;;;;;9.50;1.25;;;;;;;10.24;100.00;99978.72;5078014;28;20181;-84
2021/10/21 09:38:28;;;;;;;8.15;1.23;;;;;;;10.23;100.00;100009.56;5078731;28;20058;-84
2021/10/21 09:40:55;;;;;;;8.63;1.10;;;;;;;10.18;100.00;99999.28;5060986;28;20056;-84
2021/10/21 09:43:28;;;;;;;7.07;1.10;;;;;;;10.12;100.00;100006.78;5077133;28;20032;-86
2021/10/21 09:45:54;;;;;;;4.78;0.93;;;;;;;10.17;100.00;100009.97;5077930;28;20036;-86
2021/10/21 09:48:20;;;;;;;2.25;0.77;;;;;;;10.16;100.00;100014.41;5060323;28;20029;-84
2021/10/21 09:50:48;;;;;;;8.07;0.77;;;;;;;10.26;100.00;100022.56;5077409;28;20020;-83
2021/10/21 09:53:29;;;;;;;4.05;0.70;;;;;;;10.28;100.00;100023.34;5078283;28;20028;-83
2021/10/21 09:56:08;;;;;;;3.60;0.70;;;;;;;10.42;100.00;100033.00;5091335;28;20028;-83
2021/10/21 09:58:35;;;;;;;6.90;0.90;;;;;;;10.38;100.00;100067.66;5062050;28;20028;-85
2021/10/21 10:01:13;;;;;;;6.15;0.90;;;;;;;9.88;100.00;100055.78;5084876;28;20020;-83
2021/10/21 10:03:42;;;;;;;6.80;1.05;;;;;;;10.52;100.00;100074.72;5110052;28;20024;-82
2021/10/21 10:06:08;;;;;;;5.85;1.17;;;;;;;10.79;100.00;100080.00;5118560;28;20027;-83
2021/10/21 10:08:34;;;;;;;5.55;1.00;;;;;;;10.45;100.00;100090.09;5106695;28;20370;-82
2021/10/21 10:11:03;;;;;;;13.13;1.48;;;;;;;10.07;100.00;100110.94;5086561;28;20474;-89
2021/10/21 10:13:29;;;;;;;6.15;1.13;;;;;;;10.26;100.00;100109.78;5086786;28;20020;-82
2021/10/21 10:15:55;;;;;;;4.63;0.90;;;;;;;9.62;100.00;100115.50;5104955;28;20042;-81
2021/10/21 10:18:28;;;;;;;4.13;0.90;;;;;;;9.64;100.00;100117.09;5104976;28;20032;-82
2021/10/21 10:21:00;;;;;;;9.13;1.35;;;;;;;9.73;100.00;100134.16;5086847;28;20089;-83
2021/10/21 10:23:25;;;;;;;7.55;1.25;;;;;;;9.53;100.00;100133.56;5106403;28;20028;-80
2021/10/21 10:25:52;;;;;;;5.70;0.82;;;;;;;9.59;100.00;100135.00;5065234;28;20039;-86
2021/10/21 10:28:18;;;;;;;9.27;1.58;;;;;;;9.80;100.00;100148.69;5078625;28;20098;-89
2021/10/21 10:30:50;;;;;;;6.03;1.00;;;;;;;9.72;100.00;100145.66;5059763;28;20036;-82
2021/10/21 10:33:42;;;;;;;7.78;1.05;;;;;;;9.70;100.00;100155.47;5062538;28;20540;-82
2021/10/21 10:36:28;;;;;;;5.25;1.23;;;;;;;9.82;100.00;100161.81;5079088;28;20111;-82
2021/10/21 10:39:04;;;;;;;7.20;1.20;;;;;;;9.87;98.86;100165.00;5063488;28;20063;-83
2021/10/21 10:41:47;;;;;;;7.00;1.00;;;;;;;9.91;95.64;100181.50;5065449;28;20049;-83
2021/10/21 10:44:34;;;;;;;6.20;0.90;;;;;;;10.17;93.19;100192.25;5083065;28;20325;-82
2021/10/21 10:47:00;;;;;;;6.95;0.85;;;;;;;9.99;91.70;100200.41;5083461;28;20086;-85
2021/10/21 10:49:41;;;;;;;4.53;1.15;;;;;;;10.20;89.45;100197.34;5061480;28;20024;-83
2021/10/21 10:52:09;;;;;;;3.83;0.88;;;;;;;10.00;84.09;100217.94;5077927;28;20043;-84
2021/10/21 10:54:46;;;;;;;3.17;0.75;;;;;;;10.21;83.88;100207.84;5078099;28;20047;-82
2021/10/21 10:57:14;;;;;;;3.40;1.00;;;;;;;10.53;84.86;100211.22;5078566;28;20027;-84
2021/10/21 10:59:42;;;;;;;3.97;0.98;;;;;;;10.45;83.74;100209.03;5044182;28;20031;-82
2021/10/21 11:02:24;;;;;;;2.88;0.68;;;;;;;10.37;86.24;100216.63;5044072;28;20025;-83
2021/10/21 11:04:56;;;;;;;9.18;1.63;;;;;;;10.43;86.06;100225.00;5077927;28;20025;-84
2021/10/21 11:07:24;;;;;;;4.03;1.10;;;;;;;10.40;87.06;100227.00;5061638;28;20071;-85
2021/10/21 11:09:53;;;;;;;7.38;1.10;;;;;;;10.64;87.47;100226.41;5076637;28;20048;-83
2021/10/21 11:12:23;;;;;;;6.47;1.02;;;;;;;10.61;88.20;100231.91;5077665;28;20024;-81
2021/10/21 11:14:54;;;;;;;7.68;1.20;;;;;;;10.70;89.03;100240.09;5077391;28;20394;-84
2021/10/21 11:17:39;;;;;;;7.97;1.40;;;;;;;10.80;89.22;100244.81;5059184;28;20036;-84
2021/10/21 11:20:06;;;;;;;5.00;1.10;;;;;;;10.82;89.10;100249.09;5081598;28;20043;-82
2021/10/21 11:22:31;;;;;;;5.50;1.30;;;;;;;11.02;89.38;100268.09;5054354;28;20064;-80
2021/10/21 11:25:08;;;;;;;7.53;1.20;;;;;;;10.70;88.29;100252.50;5083006;28;20037;-80
2021/10/21 11:27:42;;;;;;;8.88;1.42;;;;;;;10.81;89.39;100255.28;5087740;28;20119;-84